sensor_id;sensor_type;location;lat;lon;timestamp;pressure;altitude;pressure_sealevel;temperature;humidity
26563;BME280;14217;50.986;5.826;2022-11-20T00:03:55;100602.25;;;19.09;44.90
26563;BME280;14217;50.986;5.826;2022-11-20T00:08:58;100603.97;;;19.11;44.89
26563;BME280;14217;50.986;5.826;2022-11-20T00:14:02;100603.97;;;19.11;45.02
26563;BME280;14217;50.986;5.826;2022-11-20T00:19:03;100595.16;;;19.10;44.78
26563;BME280;14217;50.986;5.826;2022-11-20T00:24:08;100589.66;;;19.13;44.64
26563;BME280;14217;50.986;5.826;2022-11-20T00:29:10;100584.53;;;19.10;44.84
26563;BME280;14217;50.986;5.826;2022-11-20T00:34:12;100588.34;;;19.04;44.68
26563;BME280;14217;50.986;5.826;2022-11-20T00:39:14;100591.00;;;19.04;44.82
26563;BME280;14217;50.986;5.826;2022-11-20T00:44:16;100576.09;;;19.02;44.93
26563;BME280;14217;50.986;5.826;2022-11-20T00:49:18;100578.44;;;19.08;45.27
26563;BME280;14217;50.986;5.826;2022-11-20T00:54:20;100587.25;;;19.08;45.26
26563;BME280;14217;50.986;5.826;2022-11-20T00:59:22;100577.66;;;19.06;45.32
26563;BME280;14217;50.986;5.826;2022-11-20T01:04:24;100584.06;;;19.02;45.19
26563;BME280;14217;50.986;5.826;2022-11-20T01:09:26;100567.09;;;19.04;45.07
26563;BME280;14217;50.986;5.826;2022-11-20T01:14:28;100568.13;;;19.02;45.02
26563;BME280;14217;50.986;5.826;2022-11-20T01:19:33;100567.03;;;19.06;45.02
26563;BME280;14217;50.986;5.826;2022-11-20T01:24:35;100562.66;;;19.05;45.11
26563;BME280;14217;50.986;5.826;2022-11-20T01:29:36;100550.31;;;19.04;44.90
26563;BME280;14217;50.986;5.826;2022-11-20T01:34:38;100549.44;;;19.03;45.08
26563;BME280;14217;50.986;5.826;2022-11-20T01:39:40;100563.59;;;19.04;44.63
26563;BME280;14217;50.986;5.826;2022-11-20T01:44:58;100563.59;;;19.04;44.95
26563;BME280;14217;50.986;5.826;2022-11-20T01:50:23;100544.38;;;18.99;45.06
26563;BME280;14217;50.986;5.826;2022-11-20T01:55:32;100542.44;;;19.02;44.76
26563;BME280;14217;50.986;5.826;2022-11-20T02:00:35;100544.22;;;19.02;44.91
26563;BME280;14217;50.986;5.826;2022-11-20T02:05:46;100544.44;;;18.97;44.80
26563;BME280;14217;50.986;5.826;2022-11-20T02:10:50;100545.22;;;18.99;44.91
26563;BME280;14217;50.986;5.826;2022-11-20T02:15:52;100561.00;;;19.02;44.89
26563;BME280;14217;50.986;5.826;2022-11-20T02:21:09;100567.34;;;19.00;44.75
26563;BME280;14217;50.986;5.826;2022-11-20T02:26:13;100562.81;;;19.02;44.46
26563;BME280;14217;50.986;5.826;2022-11-20T02:31:17;100559.38;;;19.00;44.53
26563;BME280;14217;50.986;5.826;2022-11-20T02:36:18;100555.22;;;18.94;44.99
26563;BME280;14217;50.986;5.826;2022-11-20T02:41:21;100559.38;;;19.00;44.85
26563;BME280;14217;50.986;5.826;2022-11-20T02:46:23;100554.06;;;19.00;44.75
26563;BME280;14217;50.986;5.826;2022-11-20T02:51:25;100554.75;;;19.03;44.56
26563;BME280;14217;50.986;5.826;2022-11-20T02:56:27;100556.63;;;19.01;44.74
26563;BME280;14217;50.986;5.826;2022-11-20T03:01:29;100551.25;;;19.03;44.51
26563;BME280;14217;50.986;5.826;2022-11-20T03:06:31;100542.50;;;19.01;44.31
26563;BME280;14217;50.986;5.826;2022-11-20T03:11:33;100547.81;;;19.01;44.51
26563;BME280;14217;50.986;5.826;2022-11-20T03:16:35;100548.84;;;18.98;44.37
26563;BME280;14217;50.986;5.826;2022-11-20T03:21:37;100559.50;;;18.97;44.49
26563;BME280;14217;50.986;5.826;2022-11-20T03:26:39;100568.25;;;18.99;44.66
26563;BME280;14217;50.986;5.826;2022-11-20T03:31:41;100554.22;;;18.97;44.76
26563;BME280;14217;50.986;5.826;2022-11-20T03:36:44;100546.41;;;18.94;44.42
26563;BME280;14217;50.986;5.826;2022-11-20T03:41:46;100535.69;;;18.95;44.39
26563;BME280;14217;50.986;5.826;2022-11-20T03:46:48;100529.41;;;18.98;44.27
26563;BME280;14217;50.986;5.826;2022-11-20T03:51:50;100529.41;;;18.98;44.32
26563;BME280;14217;50.986;5.826;2022-11-20T03:56:52;100532.19;;;18.95;44.59
26563;BME280;14217;50.986;5.826;2022-11-20T04:01:54;100536.66;;;18.94;44.63
26563;BME280;14217;50.986;5.826;2022-11-20T04:06:56;100530.56;;;18.92;44.54
26563;BME280;14217;50.986;5.826;2022-11-20T04:11:58;100532.91;;;18.98;44.31
26563;BME280;14217;50.986;5.826;2022-11-20T04:16:59;100524.09;;;18.98;44.31
26563;BME280;14217;50.986;5.826;2022-11-20T04:22:01;100526.03;;;18.94;44.51
26563;BME280;14217;50.986;5.826;2022-11-20T04:27:03;100525.97;;;18.96;44.15
26563;BME280;14217;50.986;5.826;2022-11-20T04:32:05;100533.91;;;18.96;44.41
26563;BME280;14217;50.986;5.826;2022-11-20T04:37:07;100528.63;;;18.96;44.12
26563;BME280;14217;50.986;5.826;2022-11-20T04:42:10;100527.84;;;18.94;44.51
26563;BME280;14217;50.986;5.826;2022-11-20T04:47:30;100529.47;;;18.96;44.28
26563;BME280;14217;50.986;5.826;2022-11-20T04:52:32;100525.31;;;18.91;44.56
26563;BME280;14217;50.986;5.826;2022-11-20T04:57:33;100523.44;;;18.93;44.49
26563;BME280;14217;50.986;5.826;2022-11-20T05:02:36;100528.75;;;18.93;44.22
26563;BME280;14217;50.986;5.826;2022-11-20T05:07:37;100532.38;;;18.92;44.17
26563;BME280;14217;50.986;5.826;2022-11-20T05:12:39;100528.69;;;18.94;44.26
26563;BME280;14217;50.986;5.826;2022-11-20T05:17:49;100522.75;;;18.89;44.12
26563;BME280;14217;50.986;5.826;2022-11-20T05:22:52;100512.75;;;18.94;44.19
26563;BME280;14217;50.986;5.826;2022-11-20T05:27:54;100504.97;;;18.91;44.39
26563;BME280;14217;50.986;5.826;2022-11-20T05:32:56;100491.69;;;18.91;44.38
26563;BME280;14217;50.986;5.826;2022-11-20T05:37:58;100496.13;;;18.91;44.04
26563;BME280;14217;50.986;5.826;2022-11-20T05:43:00;100497.69;;;18.95;44.07
26563;BME280;14217;50.986;5.826;2022-11-20T05:48:02;100496.81;;;18.94;44.08
26563;BME280;14217;50.986;5.826;2022-11-20T05:53:04;100504.97;;;18.91;44.22
26563;BME280;14217;50.986;5.826;2022-11-20T05:58:06;100512.16;;;18.89;43.97
26563;BME280;14217;50.986;5.826;2022-11-20T06:03:08;100511.19;;;18.90;44.29
26563;BME280;14217;50.986;5.826;2022-11-20T06:08:10;100519.94;;;18.92;43.95
26563;BME280;14217;50.986;5.826;2022-11-20T06:13:12;100519.75;;;18.95;44.09
26563;BME280;14217;50.986;5.826;2022-11-20T06:18:14;100516.44;;;18.92;44.12
26563;BME280;14217;50.986;5.826;2022-11-20T06:23:16;100527.84;;;18.94;44.18
26563;BME280;14217;50.986;5.826;2022-11-20T06:28:18;100515.41;;;18.94;44.11
26563;BME280;14217;50.986;5.826;2022-11-20T06:33:20;100523.63;;;18.89;44.21
26563;BME280;14217;50.986;5.826;2022-11-20T06:38:22;100529.69;;;18.92;43.81
26563;BME280;14217;50.986;5.826;2022-11-20T06:43:24;100520.09;;;18.89;44.18
26563;BME280;14217;50.986;5.826;2022-11-20T06:48:27;100527.19;;;18.88;44.05
26563;BME280;14217;50.986;5.826;2022-11-20T06:53:30;100527.19;;;18.88;43.86
26563;BME280;14217;50.986;5.826;2022-11-20T06:58:34;100524.47;;;18.90;43.96
26563;BME280;14217;50.986;5.826;2022-11-20T07:03:36;100519.16;;;18.90;43.93
26563;BME280;14217;50.986;5.826;2022-11-20T07:08:39;100519.31;;;18.87;43.81
26563;BME280;14217;50.986;5.826;2022-11-20T07:13:40;100516.56;;;18.88;44.03
26563;BME280;14217;50.986;5.826;2022-11-20T07:18:42;100525.31;;;18.91;43.99
26563;BME280;14217;50.986;5.826;2022-11-20T07:23:51;100514.03;;;18.87;43.84
26563;BME280;14217;50.986;5.826;2022-11-20T07:28:52;100516.56;;;18.88;43.97
26563;BME280;14217;50.986;5.826;2022-11-20T07:33:54;100511.19;;;18.90;43.83
26563;BME280;14217;50.986;5.826;2022-11-20T07:38:56;100513.13;;;18.86;44.00
26563;BME280;14217;50.986;5.826;2022-11-20T07:43:58;100506.13;;;18.85;44.04
26563;BME280;14217;50.986;5.826;2022-11-20T07:49:00;100519.53;;;18.82;44.19
26563;BME280;14217;50.986;5.826;2022-11-20T07:54:02;100512.28;;;18.86;43.75
26563;BME280;14217;50.986;5.826;2022-11-20T07:59:04;100525.50;;;18.87;43.68
26563;BME280;14217;50.986;5.826;2022-11-20T08:04:06;100527.13;;;18.90;43.72
26563;BME280;14217;50.986;5.826;2022-11-20T08:09:08;100519.41;;;18.85;43.85
26563;BME280;14217;50.986;5.826;2022-11-20T08:14:11;100514.94;;;18.86;43.69
26563;BME280;14217;50.986;5.826;2022-11-20T08:19:14;100510.59;;;18.85;43.90
26563;BME280;14217;50.986;5.826;2022-11-20T08:24:16;100500.81;;;18.85;43.77
26563;BME280;14217;50.986;5.826;2022-11-20T08:29:18;100509.88;;;18.81;42.93
26563;BME280;14217;50.986;5.826;2022-11-20T08:34:21;100516.81;;;18.84;43.31
26563;BME280;14217;50.986;5.826;2022-11-20T08:39:23;100498.94;;;18.87;43.52
26563;BME280;14217;50.986;5.826;2022-11-20T08:44:25;100495.66;;;18.82;43.46
26563;BME280;14217;50.986;5.826;2022-11-20T08:49:27;100498.16;;;18.85;43.57
26563;BME280;14217;50.986;5.826;2022-11-20T08:54:29;100494.72;;;18.83;43.70
26563;BME280;14217;50.986;5.826;2022-11-20T08:59:31;100494.00;;;18.80;43.65
26563;BME280;14217;50.986;5.826;2022-11-20T09:04:52;100500.97;;;18.82;43.66
26563;BME280;14217;50.986;5.826;2022-11-20T09:09:57;100495.06;;;18.76;43.67
26563;BME280;14217;50.986;5.826;2022-11-20T09:15:20;100484.38;;;18.77;42.53
26563;BME280;14217;50.986;5.826;2022-11-20T09:20:22;100478.16;;;18.78;42.38
26563;BME280;14217;50.986;5.826;2022-11-20T09:25:25;100485.31;;;18.76;42.35
26563;BME280;14217;50.986;5.826;2022-11-20T09:30:27;100470.25;;;18.77;42.22
26563;BME280;14217;50.986;5.826;2022-11-20T09:35:29;100464.41;;;18.70;42.45
26563;BME280;14217;50.986;5.826;2022-11-20T09:40:31;100460.50;;;18.77;42.11
26563;BME280;14217;50.986;5.826;2022-11-20T09:56:25;100450.72;;;18.78;42.33
26563;BME280;14217;50.986;5.826;2022-11-20T10:01:31;100441.88;;;18.79;42.64
26563;BME280;14217;50.986;5.826;2022-11-20T10:06:41;100447.88;;;18.82;42.48
26563;BME280;14217;50.986;5.826;2022-11-20T10:12:25;100439.28;;;18.77;42.82
26563;BME280;14217;50.986;5.826;2022-11-20T10:17:34;100417.56;;;18.86;42.53
26563;BME280;14217;50.986;5.826;2022-11-20T10:33:57;100399.94;;;18.85;43.07
26563;BME280;14217;50.986;5.826;2022-11-20T10:39:29;100382.47;;;18.81;42.79
26563;BME280;14217;50.986;5.826;2022-11-20T10:44:33;100378.84;;;18.82;43.04
26563;BME280;14217;50.986;5.826;2022-11-20T10:50:02;100374.78;;;18.75;43.08
26563;BME280;14217;50.986;5.826;2022-11-20T10:55:39;100357.06;;;18.76;43.46
26563;BME280;14217;50.986;5.826;2022-11-20T11:00:42;100360.47;;;18.79;43.33
26563;BME280;14217;50.986;5.826;2022-11-20T11:06:18;100344.47;;;18.81;43.35
26563;BME280;14217;50.986;5.826;2022-11-20T11:11:27;100331.78;;;18.86;42.92
26563;BME280;14217;50.986;5.826;2022-11-20T11:16:29;100319.69;;;18.80;43.09
26563;BME280;14217;50.986;5.826;2022-11-20T11:21:31;100306.31;;;18.66;43.82
26563;BME280;14217;50.986;5.826;2022-11-20T11:26:33;100294.38;;;18.91;43.11
26563;BME280;14217;50.986;5.826;2022-11-20T11:31:35;100293.84;;;18.84;43.16
26563;BME280;14217;50.986;5.826;2022-11-20T11:36:37;100274.56;;;18.80;43.14
26563;BME280;14217;50.986;5.826;2022-11-20T11:41:39;100270.16;;;18.81;43.52
26563;BME280;14217;50.986;5.826;2022-11-20T11:46:55;100263.09;;;18.80;43.29
26563;BME280;14217;50.986;5.826;2022-11-20T11:52:05;100252.34;;;18.83;43.16
26563;BME280;14217;50.986;5.826;2022-11-20T12:07:50;100239.53;;;18.74;42.47
26563;BME280;14217;50.986;5.826;2022-11-20T12:13:02;100225.59;;;18.70;42.59
26563;BME280;14217;50.986;5.826;2022-11-20T12:18:15;100216.81;;;18.52;43.96
26563;BME280;14217;50.986;5.826;2022-11-20T12:23:33;100207.25;;;18.49;43.81
26563;BME280;14217;50.986;5.826;2022-11-20T12:29:09;100195.84;;;18.47;43.54
26563;BME280;14217;50.986;5.826;2022-11-20T12:39:35;100175.56;;;18.46;42.95
26563;BME280;14217;50.986;5.826;2022-11-20T12:50:26;100146.81;;;18.39;43.19
26563;BME280;14217;50.986;5.826;2022-11-20T13:01:32;100124.56;;;18.41;42.99
26563;BME280;14217;50.986;5.826;2022-11-20T13:06:44;100129.69;;;18.44;43.34
26563;BME280;14217;50.986;5.826;2022-11-20T13:22:27;100096.91;;;18.77;43.40
26563;BME280;14217;50.986;5.826;2022-11-20T13:27:30;100097.63;;;18.81;43.54
26563;BME280;14217;50.986;5.826;2022-11-20T13:32:33;100094.22;;;18.79;43.28
26563;BME280;14217;50.986;5.826;2022-11-20T13:37:38;100070.56;;;18.74;43.28
26563;BME280;14217;50.986;5.826;2022-11-20T13:42:45;100060.97;;;18.72;43.28
26563;BME280;14217;50.986;5.826;2022-11-20T13:47:54;100052.84;;;18.75;43.02
26563;BME280;14217;50.986;5.826;2022-11-20T13:53:32;100052.91;;;18.73;43.24
26563;BME280;14217;50.986;5.826;2022-11-20T13:58:59;100036.28;;;18.55;43.18
26563;BME280;14217;50.986;5.826;2022-11-20T14:04:07;100039.66;;;18.73;42.81
26563;BME280;14217;50.986;5.826;2022-11-20T14:09:26;100034.34;;;18.73;42.59
26563;BME280;14217;50.986;5.826;2022-11-20T14:14:30;100028.09;;;18.74;42.75
26563;BME280;14217;50.986;5.826;2022-11-20T14:19:33;100012.19;;;18.74;42.59
26563;BME280;14217;50.986;5.826;2022-11-20T14:24:35;100007.81;;;18.57;43.55
26563;BME280;14217;50.986;5.826;2022-11-20T14:29:38;100003.88;;;18.80;42.68
26563;BME280;14217;50.986;5.826;2022-11-20T14:34:41;99989.03;;;18.76;42.60
26563;BME280;14217;50.986;5.826;2022-11-20T14:39:50;99985.66;;;18.74;42.83
26563;BME280;14217;50.986;5.826;2022-11-20T14:44:58;99973.31;;;18.73;42.74
26563;BME280;14217;50.986;5.826;2022-11-20T14:50:01;99950.19;;;18.75;42.79
26563;BME280;14217;50.986;5.826;2022-11-20T14:55:13;99938.03;;;18.71;42.96
26563;BME280;14217;50.986;5.826;2022-11-20T15:05:24;99923.84;;;18.72;42.58
26563;BME280;14217;50.986;5.826;2022-11-20T15:10:27;99913.03;;;18.75;42.68
26563;BME280;14217;50.986;5.826;2022-11-20T15:15:36;99900.72;;;18.74;42.88
26563;BME280;14217;50.986;5.826;2022-11-20T15:20:41;99887.63;;;18.71;42.58
26563;BME280;14217;50.986;5.826;2022-11-20T15:25:43;99877.09;;;18.69;42.80
26563;BME280;14217;50.986;5.826;2022-11-20T15:30:46;99878.75;;;18.72;42.89
26563;BME280;14217;50.986;5.826;2022-11-20T15:35:48;99867.94;;;18.75;42.44
26563;BME280;14217;50.986;5.826;2022-11-20T15:40:51;99859.28;;;18.72;42.55
26563;BME280;14217;50.986;5.826;2022-11-20T15:46:04;99849.34;;;18.75;42.58
26563;BME280;14217;50.986;5.826;2022-11-20T15:56:12;99822.25;;;18.70;42.57
26563;BME280;14217;50.986;5.826;2022-11-20T16:01:19;99816.00;;;18.71;42.59
26563;BME280;14217;50.986;5.826;2022-11-20T16:06:22;99799.59;;;18.64;43.18
26563;BME280;14217;50.986;5.826;2022-11-20T16:11:24;99800.06;;;18.71;43.26
26563;BME280;14217;50.986;5.826;2022-11-20T16:16:32;99795.72;;;18.70;43.38
26563;BME280;14217;50.986;5.826;2022-11-20T16:21:34;99780.72;;;18.40;45.03
26563;BME280;14217;50.986;5.826;2022-11-20T16:26:39;99777.31;;;18.38;45.06
26563;BME280;14217;50.986;5.826;2022-11-20T16:31:41;99777.41;;;18.37;44.97
26563;BME280;14217;50.986;5.826;2022-11-20T16:36:43;99784.41;;;18.38;44.99
26563;BME280;14217;50.986;5.826;2022-11-20T16:41:46;99785.94;;;18.42;44.70
26563;BME280;14217;50.986;5.826;2022-11-20T16:46:48;99773.44;;;18.58;44.25
26563;BME280;14217;50.986;5.826;2022-11-20T16:51:50;99786.78;;;18.57;44.27
26563;BME280;14217;50.986;5.826;2022-11-20T16:56:52;99780.69;;;18.85;43.53
26563;BME280;14217;50.986;5.826;2022-11-20T17:01:55;99769.94;;;19.01;43.07
26563;BME280;14217;50.986;5.826;2022-11-20T17:06:57;99756.28;;;18.93;43.06
26563;BME280;14217;50.986;5.826;2022-11-20T17:12:06;99756.41;;;18.91;43.10
26563;BME280;14217;50.986;5.826;2022-11-20T17:17:08;99761.53;;;18.80;43.54
26563;BME280;14217;50.986;5.826;2022-11-20T17:22:10;99766.91;;;18.78;43.50
26563;BME280;14217;50.986;5.826;2022-11-20T17:27:12;99776.03;;;18.74;43.39
26563;BME280;14217;50.986;5.826;2022-11-20T17:32:14;99776.66;;;18.78;43.34
26563;BME280;14217;50.986;5.826;2022-11-20T17:37:17;99783.00;;;18.75;43.39
26563;BME280;14217;50.986;5.826;2022-11-20T17:42:18;99779.41;;;18.76;43.12
26563;BME280;14217;50.986;5.826;2022-11-20T17:47:30;99783.00;;;18.75;43.27
26563;BME280;14217;50.986;5.826;2022-11-20T17:52:32;99777.72;;;18.75;43.00
26563;BME280;14217;50.986;5.826;2022-11-20T17:57:34;99774.28;;;18.73;43.01
26563;BME280;14217;50.986;5.826;2022-11-20T18:02:54;99776.75;;;18.76;43.10
26563;BME280;14217;50.986;5.826;2022-11-20T18:07:56;99787.00;;;18.68;43.20
26563;BME280;14217;50.986;5.826;2022-11-20T18:12:58;99769.19;;;18.70;43.01
26563;BME280;14217;50.986;5.826;2022-11-20T18:18:00;99776.94;;;18.73;43.23
26563;BME280;14217;50.986;5.826;2022-11-20T18:23:02;99772.22;;;18.78;43.04
26563;BME280;14217;50.986;5.826;2022-11-20T18:28:04;99748.44;;;18.77;42.92
26563;BME280;14217;50.986;5.826;2022-11-20T18:33:06;99757.91;;;18.66;42.94
26563;BME280;14217;50.986;5.826;2022-11-20T18:38:08;99765.19;;;18.63;43.19
26563;BME280;14217;50.986;5.826;2022-11-20T18:43:10;99763.00;;;18.69;43.17
26563;BME280;14217;50.986;5.826;2022-11-20T18:48:31;99747.97;;;18.70;42.99
26563;BME280;14217;50.986;5.826;2022-11-20T18:53:36;99776.53;;;18.81;43.03
26563;BME280;14217;50.986;5.826;2022-11-20T18:58:42;99768.06;;;18.74;43.13
26563;BME280;14217;50.986;5.826;2022-11-20T19:03:44;99754.59;;;18.77;43.34
26563;BME280;14217;50.986;5.826;2022-11-20T19:08:47;99757.94;;;18.81;42.99
26563;BME280;14217;50.986;5.826;2022-11-20T19:13:49;99764.72;;;18.71;43.26
26563;BME280;14217;50.986;5.826;2022-11-20T19:18:51;99775.44;;;18.69;43.11
26563;BME280;14217;50.986;5.826;2022-11-20T19:23:58;99771.66;;;18.73;42.91
26563;BME280;14217;50.986;5.826;2022-11-20T19:29:00;99785.75;;;18.74;43.12
26563;BME280;14217;50.986;5.826;2022-11-20T19:34:03;99781.31;;;18.74;42.70
26563;BME280;14217;50.986;5.826;2022-11-20T19:39:06;99791.19;;;18.72;42.71
26563;BME280;14217;50.986;5.826;2022-11-20T19:44:14;99789.06;;;18.77;42.46
26563;BME280;14217;50.986;5.826;2022-11-20T19:49:16;99794.84;;;18.69;42.66
26563;BME280;14217;50.986;5.826;2022-11-20T19:54:18;99792.13;;;18.71;42.73
26563;BME280;14217;50.986;5.826;2022-11-20T19:59:20;99812.78;;;18.66;43.00
26563;BME280;14217;50.986;5.826;2022-11-20T20:04:23;99809.25;;;18.65;42.57
26563;BME280;14217;50.986;5.826;2022-11-20T20:09:25;99819.50;;;18.72;42.45
26563;BME280;14217;50.986;5.826;2022-11-20T20:14:27;99825.00;;;18.68;42.54
26563;BME280;14217;50.986;5.826;2022-11-20T20:19:30;99820.91;;;18.63;42.55
26563;BME280;14217;50.986;5.826;2022-11-20T20:24:32;99824.91;;;18.70;43.60
26563;BME280;14217;50.986;5.826;2022-11-20T20:29:34;99839.69;;;18.74;43.12
26563;BME280;14217;50.986;5.826;2022-11-20T20:34:36;99841.97;;;18.80;42.99
26563;BME280;14217;50.986;5.826;2022-11-20T20:39:37;99845.84;;;18.75;43.25
26563;BME280;14217;50.986;5.826;2022-11-20T20:44:39;99851.22;;;18.59;42.88
26563;BME280;14217;50.986;5.826;2022-11-20T20:50:01;99832.38;;;18.63;43.11
26563;BME280;14217;50.986;5.826;2022-11-20T20:55:03;99851.31;;;18.72;43.29
26563;BME280;14217;50.986;5.826;2022-11-20T21:00:06;99848.81;;;18.99;42.86
26563;BME280;14217;50.986;5.826;2022-11-20T21:05:08;99844.84;;;18.92;42.70
26563;BME280;14217;50.986;5.826;2022-11-20T21:10:10;99844.63;;;18.80;42.81
26563;BME280;14217;50.986;5.826;2022-11-20T21:15:12;99852.72;;;18.79;43.05
26563;BME280;14217;50.986;5.826;2022-11-20T21:20:14;99854.50;;;18.78;42.93
26563;BME280;14217;50.986;5.826;2022-11-20T21:25:36;99859.78;;;18.78;43.45
26563;BME280;14217;50.986;5.826;2022-11-20T21:30:38;99850.13;;;18.77;43.23
26563;BME280;14217;50.986;5.826;2022-11-20T21:35:40;99866.25;;;18.74;43.56
26563;BME280;14217;50.986;5.826;2022-11-20T21:40:42;99857.16;;;18.78;43.09
26563;BME280;14217;50.986;5.826;2022-11-20T21:45:44;99867.47;;;18.97;43.12
26563;BME280;14217;50.986;5.826;2022-11-20T21:50:46;99870.03;;;18.84;43.46
26563;BME280;14217;50.986;5.826;2022-11-20T21:55:52;99855.94;;;18.84;43.34
26563;BME280;14217;50.986;5.826;2022-11-20T22:00:55;99859.88;;;18.77;43.44
26563;BME280;14217;50.986;5.826;2022-11-20T22:05:58;99858.19;;;18.90;42.89
26563;BME280;14217;50.986;5.826;2022-11-20T22:11:11;99860.31;;;18.85;43.01
26563;BME280;14217;50.986;5.826;2022-11-20T22:16:14;99858.50;;;18.85;43.26
26563;BME280;14217;50.986;5.826;2022-11-20T22:21:18;99852.50;;;18.82;43.30
26563;BME280;14217;50.986;5.826;2022-11-20T22:26:31;99874.78;;;18.79;43.15
26563;BME280;14217;50.986;5.826;2022-11-20T22:31:41;99870.16;;;18.83;42.94
26563;BME280;14217;50.986;5.826;2022-11-20T22:36:43;99885.41;;;18.79;43.39
26563;BME280;14217;50.986;5.826;2022-11-20T22:41:45;99893.06;;;18.84;42.96
26563;BME280;14217;50.986;5.826;2022-11-20T22:46:47;99902.34;;;18.77;43.41
26563;BME280;14217;50.986;5.826;2022-11-20T22:51:49;99905.59;;;18.82;43.38
26563;BME280;14217;50.986;5.826;2022-11-20T22:56:51;99913.03;;;18.75;43.21
26563;BME280;14217;50.986;5.826;2022-11-20T23:01:53;99911.84;;;18.81;43.24
26563;BME280;14217;50.986;5.826;2022-11-20T23:06:55;99919.09;;;18.77;43.30
26563;BME280;14217;50.986;5.826;2022-11-20T23:11:57;99911.94;;;18.79;43.07
26563;BME280;14217;50.986;5.826;2022-11-20T23:16:59;99927.06;;;18.77;43.07
26563;BME280;14217;50.986;5.826;2022-11-20T23:22:00;99917.59;;;18.73;43.16
26563;BME280;14217;50.986;5.826;2022-11-20T23:27:02;99919.47;;;18.71;43.49
26563;BME280;14217;50.986;5.826;2022-11-20T23:32:04;99930.94;;;18.72;43.44
26563;BME280;14217;50.986;5.826;2022-11-20T23:37:06;99931.63;;;18.75;43.11
26563;BME280;14217;50.986;5.826;2022-11-20T23:42:08;99933.50;;;18.73;43.38
26563;BME280;14217;50.986;5.826;2022-11-20T23:47:10;99930.16;;;18.69;43.25
26563;BME280;14217;50.986;5.826;2022-11-20T23:52:12;99933.50;;;18.73;43.17
26563;BME280;14217;50.986;5.826;2022-11-20T23:57:14;99932.56;;;18.74;42.93
